sensor_id;sensor_type;location;lat;lon;timestamp;pressure;altitude;pressure_sealevel;temperature;humidity
23241;BME280;11789;53.482;9.862;2022-12-13T00:01:24;101469.09;;;-5.97;89.16
23241;BME280;11789;53.482;9.862;2022-12-13T00:03:55;101468.06;;;-5.99;88.82
23241;BME280;11789;53.482;9.862;2022-12-13T00:06:21;101469.81;;;-5.98;88.40
23241;BME280;11789;53.482;9.862;2022-12-13T00:08:47;101473.25;;;-5.98;87.60
23241;BME280;11789;53.482;9.862;2022-12-13T00:11:14;101464.78;;;-5.98;86.80
23241;BME280;11789;53.482;9.862;2022-12-13T00:13:41;101452.97;;;-5.99;86.53
23241;BME280;11789;53.482;9.862;2022-12-13T00:16:11;101448.72;;;-6.01;86.50
23241;BME280;11789;53.482;9.862;2022-12-13T00:18:37;101452.97;;;-5.99;86.42
23241;BME280;11789;53.482;9.862;2022-12-13T00:21:10;101456.25;;;-6.01;86.64
23241;BME280;11789;53.482;9.862;2022-12-13T00:23:35;101447.59;;;-6.04;86.18
23241;BME280;11789;53.482;9.862;2022-12-13T00:26:09;101445.47;;;-6.21;86.23
23241;BME280;11789;53.482;9.862;2022-12-13T00:28:35;101446.41;;;-6.31;86.81
23241;BME280;11789;53.482;9.862;2022-12-13T00:31:02;101449.44;;;-6.35;88.22
23241;BME280;11789;53.482;9.862;2022-12-13T00:33:28;101444.31;;;-6.37;88.93
23241;BME280;11789;53.482;9.862;2022-12-13T00:35:55;101446.06;;;-6.36;88.56
23241;BME280;11789;53.482;9.862;2022-12-13T00:38:22;101448.81;;;-6.33;87.54
23241;BME280;11789;53.482;9.862;2022-12-13T00:40:47;101452.41;;;-6.29;86.51
23241;BME280;11789;53.482;9.862;2022-12-13T00:43:13;101450.25;;;-6.24;86.19
23241;BME280;11789;53.482;9.862;2022-12-13T00:45:39;101448.62;;;-6.24;86.42
23241;BME280;11789;53.482;9.862;2022-12-13T00:48:05;101443.44;;;-6.37;86.68
23241;BME280;11789;53.482;9.862;2022-12-13T00:50:32;101441.44;;;-6.41;87.12
23241;BME280;11789;53.482;9.862;2022-12-13T00:53:00;101441.44;;;-6.41;88.03
23241;BME280;11789;53.482;9.862;2022-12-13T00:55:26;101439.41;;;-6.57;88.73
23241;BME280;11789;53.482;9.862;2022-12-13T00:57:53;101446.59;;;-6.62;89.76
23241;BME280;11789;53.482;9.862;2022-12-13T01:00:21;101445.31;;;-6.57;90.25
23241;BME280;11789;53.482;9.862;2022-12-13T01:02:51;101444.06;;;-6.62;90.52
23241;BME280;11789;53.482;9.862;2022-12-13T01:05:17;101439.81;;;-6.63;91.10
23241;BME280;11789;53.482;9.862;2022-12-13T01:07:42;101436.97;;;-6.56;90.88
23241;BME280;11789;53.482;9.862;2022-12-13T01:10:10;101438.69;;;-6.44;89.30
23241;BME280;11789;53.482;9.862;2022-12-13T01:12:37;101441.03;;;-6.36;88.49
23241;BME280;11789;53.482;9.862;2022-12-13T01:15:03;101433.81;;;-6.31;87.99
23241;BME280;11789;53.482;9.862;2022-12-13T01:17:29;101437.22;;;-6.31;87.16
23241;BME280;11789;53.482;9.862;2022-12-13T01:19:55;101431.62;;;-6.38;87.17
23241;BME280;11789;53.482;9.862;2022-12-13T01:22:22;101434.72;;;-6.53;88.38
23241;BME280;11789;53.482;9.862;2022-12-13T01:24:48;101429.75;;;-6.63;89.77
23241;BME280;11789;53.482;9.862;2022-12-13T01:27:13;101425.22;;;-6.67;91.02
23241;BME280;11789;53.482;9.862;2022-12-13T01:29:39;101418.47;;;-6.68;91.76
23241;BME280;11789;53.482;9.862;2022-12-13T01:32:05;101425.12;;;-6.68;92.20
23241;BME280;11789;53.482;9.862;2022-12-13T01:34:30;101416.47;;;-6.72;92.46
23241;BME280;11789;53.482;9.862;2022-12-13T01:36:56;101419.22;;;-6.69;92.89
23241;BME280;11789;53.482;9.862;2022-12-13T01:39:22;101424.19;;;-6.59;92.95
23241;BME280;11789;53.482;9.862;2022-12-13T01:41:50;101428.75;;;-6.43;92.28
23241;BME280;11789;53.482;9.862;2022-12-13T01:47:31;101425.75;;;-6.27;90.06
23241;BME280;11789;53.482;9.862;2022-12-13T01:50:02;101430.13;;;-6.24;89.33
23241;BME280;11789;53.482;9.862;2022-12-13T01:52:29;101428.47;;;-6.24;88.74
23241;BME280;11789;53.482;9.862;2022-12-13T01:54:57;101422.72;;;-6.23;87.78
23241;BME280;11789;53.482;9.862;2022-12-13T01:57:25;101418.66;;;-6.21;87.01
23241;BME280;11789;53.482;9.862;2022-12-13T01:59:52;101427.50;;;-6.26;86.60
23241;BME280;11789;53.482;9.862;2022-12-13T02:02:18;101427.50;;;-6.26;86.32
23241;BME280;11789;53.482;9.862;2022-12-13T02:07:18;101411.25;;;-6.41;86.56
23241;BME280;11789;53.482;9.862;2022-12-13T02:09:45;101400.38;;;-6.52;88.02
23241;BME280;11789;53.482;9.862;2022-12-13T02:12:12;101404.66;;;-6.51;89.41
23241;BME280;11789;53.482;9.862;2022-12-13T02:14:38;101398.38;;;-6.56;89.80
23241;BME280;11789;53.482;9.862;2022-12-13T02:17:34;101397.09;;;-6.51;90.26
23241;BME280;11789;53.482;9.862;2022-12-13T02:23:50;101406.16;;;-6.31;89.43
23241;BME280;11789;53.482;9.862;2022-12-13T02:32:22;101394.41;;;-6.42;90.02
23241;BME280;11789;53.482;9.862;2022-12-13T02:37:39;101394.62;;;-6.39;92.03
23241;BME280;11789;53.482;9.862;2022-12-13T02:40:21;101399.66;;;-6.39;92.82
23241;BME280;11789;53.482;9.862;2022-12-13T02:43:00;101387.88;;;-6.29;93.25
23241;BME280;11789;53.482;9.862;2022-12-13T02:45:49;101396.13;;;-6.19;93.19
23241;BME280;11789;53.482;9.862;2022-12-13T02:48:20;101388.03;;;-6.15;92.58
23241;BME280;11789;53.482;9.862;2022-12-13T02:50:50;101395.25;;;-6.20;92.94
23241;BME280;11789;53.482;9.862;2022-12-13T02:53:16;101392.03;;;-6.29;93.43
23241;BME280;11789;53.482;9.862;2022-12-13T02:55:46;101390.81;;;-6.34;93.85
23241;BME280;11789;53.482;9.862;2022-12-13T02:58:13;101386.47;;;-6.25;94.35
23241;BME280;11789;53.482;9.862;2022-12-13T03:06:14;101384.72;;;-6.26;94.73
23241;BME280;11789;53.482;9.862;2022-12-13T03:17:43;101376.00;;;-6.19;95.64
23241;BME280;11789;53.482;9.862;2022-12-13T03:20:15;101380.69;;;-6.24;96.04
23241;BME280;11789;53.482;9.862;2022-12-13T03:22:41;101375.19;;;-6.30;96.29
23241;BME280;11789;53.482;9.862;2022-12-13T03:25:06;101371.97;;;-6.17;96.58
23241;BME280;11789;53.482;9.862;2022-12-13T03:27:32;101375.34;;;-6.17;96.51
23241;BME280;11789;53.482;9.862;2022-12-13T03:29:58;101376.13;;;-6.18;96.71
23241;BME280;11789;53.482;9.862;2022-12-13T03:32:24;101376.34;;;-6.15;96.96
23241;BME280;11789;53.482;9.862;2022-12-13T03:34:49;101374.50;;;-6.06;97.29
23241;BME280;11789;53.482;9.862;2022-12-13T03:37:15;101374.75;;;-6.03;97.40
23241;BME280;11789;53.482;9.862;2022-12-13T03:39:40;101376.69;;;-5.98;97.62
23241;BME280;11789;53.482;9.862;2022-12-13T03:42:06;101372.44;;;-5.88;97.50
23241;BME280;11789;53.482;9.862;2022-12-13T03:44:31;101364.56;;;-5.81;97.07
23241;BME280;11789;53.482;9.862;2022-12-13T03:46:57;101367.72;;;-5.83;96.85
23241;BME280;11789;53.482;9.862;2022-12-13T03:49:22;101360.62;;;-5.77;96.79
23241;BME280;11789;53.482;9.862;2022-12-13T03:51:47;101358.31;;;-5.74;96.52
23241;BME280;11789;53.482;9.862;2022-12-13T03:54:13;101356.03;;;-5.71;96.42
23241;BME280;11789;53.482;9.862;2022-12-13T03:56:38;101358.00;;;-5.67;96.15
23241;BME280;11789;53.482;9.862;2022-12-13T03:59:04;101353.06;;;-5.65;96.02
23241;BME280;11789;53.482;9.862;2022-12-13T04:01:29;101346.47;;;-5.63;95.85
23241;BME280;11789;53.482;9.862;2022-12-13T04:03:54;101343.34;;;-5.72;95.98
23241;BME280;11789;53.482;9.862;2022-12-13T04:06:20;101343.09;;;-5.76;96.64
23241;BME280;11789;53.482;9.862;2022-12-13T04:08:45;101341.25;;;-5.66;97.22
23241;BME280;11789;53.482;9.862;2022-12-13T04:11:11;101341.78;;;-5.59;97.22
23241;BME280;11789;53.482;9.862;2022-12-13T04:13:55;101342.78;;;-5.57;96.66
23241;BME280;11789;53.482;9.862;2022-12-13T04:16:22;101346.63;;;-5.62;96.86
23241;BME280;11789;53.482;9.862;2022-12-13T04:18:47;101347.03;;;-5.56;97.29
23241;BME280;11789;53.482;9.862;2022-12-13T04:21:13;101346.81;;;-5.59;97.27
23241;BME280;11789;53.482;9.862;2022-12-13T04:23:38;101345.28;;;-5.68;97.36
23241;BME280;11789;53.482;9.862;2022-12-13T04:26:04;101339.16;;;-5.60;97.72
23241;BME280;11789;53.482;9.862;2022-12-13T04:28:30;101333.25;;;-5.61;97.65
23241;BME280;11789;53.482;9.862;2022-12-13T04:30:55;101341.59;;;-5.62;97.92
23241;BME280;11789;53.482;9.862;2022-12-13T04:33:21;101340.47;;;-5.54;98.41
23241;BME280;11789;53.482;9.862;2022-12-13T04:35:47;101349.44;;;-5.45;98.32
23241;BME280;11789;53.482;9.862;2022-12-13T04:38:13;101350.31;;;-5.45;98.06
23241;BME280;11789;53.482;9.862;2022-12-13T04:40:38;101354.81;;;-5.41;98.22
23241;BME280;11789;53.482;9.862;2022-12-13T04:43:04;101351.63;;;-5.38;98.15
23241;BME280;11789;53.482;9.862;2022-12-13T04:45:29;101356.66;;;-5.38;98.33
23241;BME280;11789;53.482;9.862;2022-12-13T04:47:55;101350.75;;;-5.39;98.30
23241;BME280;11789;53.482;9.862;2022-12-13T04:50:20;101345.94;;;-5.48;98.55
23241;BME280;11789;53.482;9.862;2022-12-13T04:52:46;101343.88;;;-5.41;98.99
23241;BME280;11789;53.482;9.862;2022-12-13T04:55:11;101341.78;;;-5.35;99.43
23241;BME280;11789;53.482;9.862;2022-12-13T04:57:38;101340.56;;;-5.29;99.64
23241;BME280;11789;53.482;9.862;2022-12-13T05:00:04;101341.78;;;-5.35;99.70
23241;BME280;11789;53.482;9.862;2022-12-13T05:02:30;101340.66;;;-5.39;100.00
23241;BME280;11789;53.482;9.862;2022-12-13T05:04:55;101339.16;;;-5.37;100.00
23241;BME280;11789;53.482;9.862;2022-12-13T05:07:21;101346.59;;;-5.38;100.00
23241;BME280;11789;53.482;9.862;2022-12-13T05:09:47;101341.31;;;-5.30;100.00
23241;BME280;11789;53.482;9.862;2022-12-13T05:12:12;101345.41;;;-5.32;100.00
23241;BME280;11789;53.482;9.862;2022-12-13T05:14:38;101344.38;;;-5.34;100.00
23241;BME280;11789;53.482;9.862;2022-12-13T05:17:03;101338.25;;;-5.37;100.00
23241;BME280;11789;53.482;9.862;2022-12-13T05:19:29;101329.72;;;-5.39;100.00
23241;BME280;11789;53.482;9.862;2022-12-13T05:21:54;101320.84;;;-5.34;100.00
23241;BME280;11789;53.482;9.862;2022-12-13T05:24:20;101316.56;;;-5.35;100.00
23241;BME280;11789;53.482;9.862;2022-12-13T05:26:45;101322.03;;;-5.29;100.00
23241;BME280;11789;53.482;9.862;2022-12-13T05:29:11;101329.47;;;-5.19;100.00
23241;BME280;11789;53.482;9.862;2022-12-13T05:31:36;101328.69;;;-5.18;100.00
23241;BME280;11789;53.482;9.862;2022-12-13T05:34:01;101323.97;;;-5.13;100.00
23241;BME280;11789;53.482;9.862;2022-12-13T05:36:27;101325.94;;;-5.09;100.00
23241;BME280;11789;53.482;9.862;2022-12-13T05:38:52;101331.53;;;-5.02;100.00
23241;BME280;11789;53.482;9.862;2022-12-13T05:41:20;101324.06;;;-5.00;100.00
23241;BME280;11789;53.482;9.862;2022-12-13T05:43:47;101331.72;;;-4.99;100.00
23241;BME280;11789;53.482;9.862;2022-12-13T05:46:13;101325.16;;;-4.97;100.00
23241;BME280;11789;53.482;9.862;2022-12-13T05:48:38;101329.63;;;-4.92;100.00
23241;BME280;11789;53.482;9.862;2022-12-13T05:51:04;101325.56;;;-4.90;100.00
23241;BME280;11789;53.482;9.862;2022-12-13T05:53:30;101327.00;;;-4.94;100.00
23241;BME280;11789;53.482;9.862;2022-12-13T05:55:59;101334.56;;;-4.94;100.00
23241;BME280;11789;53.482;9.862;2022-12-13T05:58:24;101332.25;;;-4.91;100.00
23241;BME280;11789;53.482;9.862;2022-12-13T06:00:50;101336.44;;;-4.91;100.00
23241;BME280;11789;53.482;9.862;2022-12-13T06:03:15;101336.53;;;-4.90;100.00
23241;BME280;11789;53.482;9.862;2022-12-13T06:05:41;101325.75;;;-4.87;100.00
23241;BME280;11789;53.482;9.862;2022-12-13T06:08:08;101326.22;;;-4.93;100.00
23241;BME280;11789;53.482;9.862;2022-12-13T06:10:33;101327.47;;;-5.00;100.00
23241;BME280;11789;53.482;9.862;2022-12-13T06:12:59;101327.91;;;-5.05;100.00
23241;BME280;11789;53.482;9.862;2022-12-13T06:15:24;101326.59;;;-5.00;100.00
23241;BME280;11789;53.482;9.862;2022-12-13T06:17:50;101318.59;;;-5.06;100.00
23241;BME280;11789;53.482;9.862;2022-12-13T06:20:15;101326.81;;;-5.09;100.00
23241;BME280;11789;53.482;9.862;2022-12-13T06:22:41;101318.69;;;-5.05;100.00
23241;BME280;11789;53.482;9.862;2022-12-13T06:25:06;101327.81;;;-5.07;100.00
23241;BME280;11789;53.482;9.862;2022-12-13T06:27:32;101319.62;;;-5.16;100.00
23241;BME280;11789;53.482;9.862;2022-12-13T06:29:57;101329.69;;;-5.16;100.00
23241;BME280;11789;53.482;9.862;2022-12-13T06:32:23;101323.31;;;-5.11;100.00
23241;BME280;11789;53.482;9.862;2022-12-13T06:34:48;101324.41;;;-5.07;100.00
23241;BME280;11789;53.482;9.862;2022-12-13T06:37:13;101316.19;;;-5.05;100.00
23241;BME280;11789;53.482;9.862;2022-12-13T06:39:39;101321.22;;;-5.05;100.00
23241;BME280;11789;53.482;9.862;2022-12-13T06:42:09;101317.28;;;-5.13;100.00
23241;BME280;11789;53.482;9.862;2022-12-13T06:44:40;101316.09;;;-5.18;100.00
23241;BME280;11789;53.482;9.862;2022-12-13T06:47:05;101316.78;;;-5.20;100.00
23241;BME280;11789;53.482;9.862;2022-12-13T06:49:32;101324.25;;;-5.22;100.00
23241;BME280;11789;53.482;9.862;2022-12-13T06:51:58;101326.84;;;-5.20;100.00
23241;BME280;11789;53.482;9.862;2022-12-13T06:54:23;101329.47;;;-5.19;100.00
23241;BME280;11789;53.482;9.862;2022-12-13T06:56:48;101329.88;;;-5.13;100.00
23241;BME280;11789;53.482;9.862;2022-12-13T06:59:14;101332.84;;;-5.07;100.00
23241;BME280;11789;53.482;9.862;2022-12-13T07:01:39;101333.06;;;-5.04;100.00
23241;BME280;11789;53.482;9.862;2022-12-13T07:04:05;101331.06;;;-4.96;100.00
23241;BME280;11789;53.482;9.862;2022-12-13T07:06:33;101337.41;;;-4.89;100.00
23241;BME280;11789;53.482;9.862;2022-12-13T07:08:59;101336.62;;;-4.88;100.00
23241;BME280;11789;53.482;9.862;2022-12-13T07:11:27;101338.72;;;-4.94;100.00
23241;BME280;11789;53.482;9.862;2022-12-13T07:13:53;101338.97;;;-4.91;100.00
23241;BME280;11789;53.482;9.862;2022-12-13T07:16:21;101349.13;;;-4.90;100.00
23241;BME280;11789;53.482;9.862;2022-12-13T07:18:46;101342.53;;;-4.88;100.00
23241;BME280;11789;53.482;9.862;2022-12-13T07:21:13;101348.03;;;-4.93;100.00
23241;BME280;11789;53.482;9.862;2022-12-13T07:23:39;101348.41;;;-5.01;100.00
23241;BME280;11789;53.482;9.862;2022-12-13T07:26:06;101358.25;;;-5.04;100.00
23241;BME280;11789;53.482;9.862;2022-12-13T07:28:33;101357.62;;;-5.01;100.00
23241;BME280;11789;53.482;9.862;2022-12-13T07:31:03;101360.75;;;-4.92;100.00
23241;BME280;11789;53.482;9.862;2022-12-13T07:33:30;101361.06;;;-4.87;100.00
23241;BME280;11789;53.482;9.862;2022-12-13T07:36:01;101359.88;;;-4.81;100.00
23241;BME280;11789;53.482;9.862;2022-12-13T07:38:26;101357.03;;;-4.85;100.00
23241;BME280;11789;53.482;9.862;2022-12-13T07:40:55;101358.69;;;-4.86;100.00
23241;BME280;11789;53.482;9.862;2022-12-13T07:43:21;101358.78;;;-4.84;100.00
23241;BME280;11789;53.482;9.862;2022-12-13T07:45:46;101353.16;;;-4.80;100.00
23241;BME280;11789;53.482;9.862;2022-12-13T07:48:11;101357.44;;;-4.79;100.00
23241;BME280;11789;53.482;9.862;2022-12-13T07:50:37;101353.34;;;-4.77;100.00
23241;BME280;11789;53.482;9.862;2022-12-13T07:53:07;101355.13;;;-4.76;100.00
23241;BME280;11789;53.482;9.862;2022-12-13T07:55:33;101357.66;;;-4.76;100.00
23241;BME280;11789;53.482;9.862;2022-12-13T07:58:04;101364.53;;;-4.74;100.00
23241;BME280;11789;53.482;9.862;2022-12-13T08:00:30;101362.13;;;-4.72;100.00
23241;BME280;11789;53.482;9.862;2022-12-13T08:02:56;101367.28;;;-4.71;100.00
23241;BME280;11789;53.482;9.862;2022-12-13T08:05:21;101362.25;;;-4.71;100.00
23241;BME280;11789;53.482;9.862;2022-12-13T08:07:47;101364.00;;;-4.70;100.00
23241;BME280;11789;53.482;9.862;2022-12-13T08:10:13;101364.31;;;-4.65;100.00
23241;BME280;11789;53.482;9.862;2022-12-13T08:12:38;101368.09;;;-4.58;100.00
23241;BME280;11789;53.482;9.862;2022-12-13T08:15:04;101369.37;;;-4.52;100.00
23241;BME280;11789;53.482;9.862;2022-12-13T08:17:30;101370.00;;;-4.43;100.00
23241;BME280;11789;53.482;9.862;2022-12-13T08:19:55;101364.78;;;-4.46;100.00
23241;BME280;11789;53.482;9.862;2022-12-13T08:22:21;101372.13;;;-4.49;100.00
23241;BME280;11789;53.482;9.862;2022-12-13T08:24:46;101375.75;;;-4.45;100.00
23241;BME280;11789;53.482;9.862;2022-12-13T08:27:12;101365.75;;;-4.44;100.00
23241;BME280;11789;53.482;9.862;2022-12-13T08:29:37;101368.91;;;-4.46;100.00
23241;BME280;11789;53.482;9.862;2022-12-13T08:32:11;101366.31;;;-4.48;100.00
23241;BME280;11789;53.482;9.862;2022-12-13T08:34:37;101368.13;;;-4.33;100.00
23241;BME280;11789;53.482;9.862;2022-12-13T08:37:04;101362.13;;;-4.22;100.00
23241;BME280;11789;53.482;9.862;2022-12-13T08:39:31;101358.69;;;-3.98;100.00
23241;BME280;11789;53.482;9.862;2022-12-13T08:41:58;101357.22;;;-2.88;100.00
23241;BME280;11789;53.482;9.862;2022-12-13T08:44:24;101349.16;;;-1.36;92.29
23241;BME280;11789;53.482;9.862;2022-12-13T08:46:49;101355.16;;;-1.03;84.50
23241;BME280;11789;53.482;9.862;2022-12-13T08:49:15;101339.59;;;-1.71;85.35
23241;BME280;11789;53.482;9.862;2022-12-13T08:51:40;101348.28;;;-2.25;86.41
23241;BME280;11789;53.482;9.862;2022-12-13T08:54:06;101346.81;;;-2.65;87.89
23241;BME280;11789;53.482;9.862;2022-12-13T08:56:31;101337.12;;;-2.72;89.48
23241;BME280;11789;53.482;9.862;2022-12-13T08:58:56;101328.37;;;-1.60;89.26
23241;BME280;11789;53.482;9.862;2022-12-13T09:01:22;101322.59;;;1.32;78.84
23241;BME280;11789;53.482;9.862;2022-12-13T09:03:47;101324.87;;;3.63;67.97
23241;BME280;11789;53.482;9.862;2022-12-13T09:06:15;101309.03;;;5.09;60.55
23241;BME280;11789;53.482;9.862;2022-12-13T09:08:41;101319.91;;;4.45;60.71
23241;BME280;11789;53.482;9.862;2022-12-13T09:11:09;101329.59;;;5.12;59.04
23241;BME280;11789;53.482;9.862;2022-12-13T09:13:36;101318.63;;;6.11;55.47
23241;BME280;11789;53.482;9.862;2022-12-13T09:16:12;101317.78;;;5.79;55.52
23241;BME280;11789;53.482;9.862;2022-12-13T09:18:38;101320.22;;;6.07;54.39
23241;BME280;11789;53.482;9.862;2022-12-13T09:21:09;101324.00;;;5.55;55.26
23241;BME280;11789;53.482;9.862;2022-12-13T09:23:36;101325.06;;;3.94;59.29
23241;BME280;11789;53.482;9.862;2022-12-13T09:26:02;101330.28;;;2.78;62.54
23241;BME280;11789;53.482;9.862;2022-12-13T09:28:28;101344.03;;;1.56;66.74
23241;BME280;11789;53.482;9.862;2022-12-13T09:30:54;101340.53;;;0.96;69.64
23241;BME280;11789;53.482;9.862;2022-12-13T09:33:21;101346.53;;;0.61;71.75
23241;BME280;11789;53.482;9.862;2022-12-13T09:35:46;101341.47;;;0.09;73.90
23241;BME280;11789;53.482;9.862;2022-12-13T09:38:12;101338.81;;;-0.10;76.09
23241;BME280;11789;53.482;9.862;2022-12-13T09:40:38;101344.66;;;-0.62;77.87
23241;BME280;11789;53.482;9.862;2022-12-13T09:43:05;101343.25;;;-1.20;80.19
23241;BME280;11789;53.482;9.862;2022-12-13T09:45:33;101340.00;;;-1.64;82.46
23241;BME280;11789;53.482;9.862;2022-12-13T09:47:58;101345.00;;;-1.80;84.21
23241;BME280;11789;53.482;9.862;2022-12-13T09:50:31;101351.28;;;-1.73;85.34
23241;BME280;11789;53.482;9.862;2022-12-13T09:52:59;101348.00;;;-1.72;85.13
23241;BME280;11789;53.482;9.862;2022-12-13T09:55:29;101349.47;;;-1.91;85.89
23241;BME280;11789;53.482;9.862;2022-12-13T09:57:57;101341.59;;;-2.10;87.21
23241;BME280;11789;53.482;9.862;2022-12-13T10:00:24;101345.31;;;-2.18;88.46
23241;BME280;11789;53.482;9.862;2022-12-13T10:02:56;101344.19;;;-2.23;89.41
23241;BME280;11789;53.482;9.862;2022-12-13T10:05:37;101343.94;;;-2.28;90.14
23241;BME280;11789;53.482;9.862;2022-12-13T10:08:07;101339.38;;;-2.33;90.95
23241;BME280;11789;53.482;9.862;2022-12-13T10:10:33;101340.59;;;-2.42;91.91
23241;BME280;11789;53.482;9.862;2022-12-13T10:13:09;101324.25;;;-2.47;92.03
23241;BME280;11789;53.482;9.862;2022-12-13T10:15:46;101334.31;;;-2.48;91.60
23241;BME280;11789;53.482;9.862;2022-12-13T10:18:26;101323.28;;;-2.49;91.33
23241;BME280;11789;53.482;9.862;2022-12-13T10:20:56;101319.13;;;-2.48;91.37
23241;BME280;11789;53.482;9.862;2022-12-13T10:23:21;101318.13;;;-2.50;91.30
23241;BME280;11789;53.482;9.862;2022-12-13T10:25:52;101322.41;;;-2.49;90.95
23241;BME280;11789;53.482;9.862;2022-12-13T10:28:30;101324.19;;;-2.48;90.84
23241;BME280;11789;53.482;9.862;2022-12-13T10:30:56;101320.00;;;-2.48;90.92
23241;BME280;11789;53.482;9.862;2022-12-13T10:34:09;101334.47;;;-2.45;91.19
23241;BME280;11789;53.482;9.862;2022-12-13T10:36:38;101321.87;;;-2.44;91.47
23241;BME280;11789;53.482;9.862;2022-12-13T10:39:07;101323.66;;;-2.43;91.97
23241;BME280;11789;53.482;9.862;2022-12-13T10:41:40;101327.16;;;-2.41;92.08
23241;BME280;11789;53.482;9.862;2022-12-13T10:46:41;101322.09;;;-2.41;92.42
23241;BME280;11789;53.482;9.862;2022-12-13T10:49:20;101318.75;;;-2.40;92.45
23241;BME280;11789;53.482;9.862;2022-12-13T10:51:48;101315.34;;;-2.40;92.49
23241;BME280;11789;53.482;9.862;2022-12-13T10:54:29;101311.94;;;-2.41;92.12
23241;BME280;11789;53.482;9.862;2022-12-13T10:56:56;101305.22;;;-2.40;92.17
23241;BME280;11789;53.482;9.862;2022-12-13T10:59:38;101306.22;;;-2.38;92.18
23241;BME280;11789;53.482;9.862;2022-12-13T11:04:58;101300.25;;;-2.39;91.79
23241;BME280;11789;53.482;9.862;2022-12-13T11:07:28;101290.13;;;-2.39;91.65
23241;BME280;11789;53.482;9.862;2022-12-13T11:09:55;101296.09;;;-2.38;91.64
23241;BME280;11789;53.482;9.862;2022-12-13T11:12:25;101287.59;;;-2.39;91.46
23241;BME280;11789;53.482;9.862;2022-12-13T11:17:21;101278.59;;;-2.33;91.53
23241;BME280;11789;53.482;9.862;2022-12-13T11:19:51;101277.91;;;-2.31;91.59
23241;BME280;11789;53.482;9.862;2022-12-13T11:22:21;101282.25;;;-2.28;91.32
23241;BME280;11789;53.482;9.862;2022-12-13T11:24:54;101278.25;;;-2.25;90.96
23241;BME280;11789;53.482;9.862;2022-12-13T11:30:07;101281.84;;;-2.21;90.43
23241;BME280;11789;53.482;9.862;2022-12-13T11:35:41;101265.19;;;-2.18;89.81
23241;BME280;11789;53.482;9.862;2022-12-13T11:38:28;101262.00;;;-2.14;89.45
23241;BME280;11789;53.482;9.862;2022-12-13T11:40:59;101257.75;;;-2.15;89.30
23241;BME280;11789;53.482;9.862;2022-12-13T11:43:35;101257.75;;;-2.15;89.02
23241;BME280;11789;53.482;9.862;2022-12-13T11:46:09;101261.13;;;-2.14;88.94
23241;BME280;11789;53.482;9.862;2022-12-13T11:48:42;101252.66;;;-2.15;88.78
23241;BME280;11789;53.482;9.862;2022-12-13T11:51:12;101249.53;;;-2.11;88.93
23241;BME280;11789;53.482;9.862;2022-12-13T11:53:48;101244.72;;;-2.06;88.70
23241;BME280;11789;53.482;9.862;2022-12-13T11:56:30;101241.59;;;-2.02;88.79
23241;BME280;11789;53.482;9.862;2022-12-13T12:04:52;101233.84;;;-1.89;88.59
23241;BME280;11789;53.482;9.862;2022-12-13T12:07:22;101236.56;;;-1.86;87.82
23241;BME280;11789;53.482;9.862;2022-12-13T12:09:56;101228.97;;;-1.86;87.72
23241;BME280;11789;53.482;9.862;2022-12-13T12:12:30;101230.72;;;-1.85;87.76
23241;BME280;11789;53.482;9.862;2022-12-13T12:15:19;101231.66;;;-1.83;87.76
23241;BME280;11789;53.482;9.862;2022-12-13T12:17:47;101227.31;;;-1.85;87.84
23241;BME280;11789;53.482;9.862;2022-12-13T12:20:39;101218.03;;;-1.85;88.03
23241;BME280;11789;53.482;9.862;2022-12-13T12:23:19;101219.78;;;-1.84;88.25
23241;BME280;11789;53.482;9.862;2022-12-13T12:25:54;101219.87;;;-1.82;87.93
23241;BME280;11789;53.482;9.862;2022-12-13T12:51:06;101196.41;;;-1.78;90.52
23241;BME280;11789;53.482;9.862;2022-12-13T12:53:53;101193.81;;;-1.79;91.05
23241;BME280;11789;53.482;9.862;2022-12-13T12:56:42;101192.22;;;-1.77;91.49
23241;BME280;11789;53.482;9.862;2022-12-13T13:02:05;101201.66;;;-1.75;92.18
23241;BME280;11789;53.482;9.862;2022-12-13T13:04:45;101203.34;;;-1.75;92.47
23241;BME280;11789;53.482;9.862;2022-12-13T13:07:19;101205.94;;;-1.74;92.83
23241;BME280;11789;53.482;9.862;2022-12-13T13:09:47;101205.25;;;-1.71;93.06
23241;BME280;11789;53.482;9.862;2022-12-13T13:12:13;101206.06;;;-1.72;93.08
23241;BME280;11789;53.482;9.862;2022-12-13T13:14:39;101200.06;;;-1.73;93.25
23241;BME280;11789;53.482;9.862;2022-12-13T13:19:42;101198.44;;;-1.72;93.80
23241;BME280;11789;53.482;9.862;2022-12-13T13:25:00;101208.81;;;-1.68;93.93
23241;BME280;11789;53.482;9.862;2022-12-13T13:27:42;101210.41;;;-1.70;94.08
23241;BME280;11789;53.482;9.862;2022-12-13T13:30:18;101208.72;;;-1.69;94.26
23241;BME280;11789;53.482;9.862;2022-12-13T13:32:45;101202.00;;;-1.69;94.43
23241;BME280;11789;53.482;9.862;2022-12-13T13:37:55;101195.00;;;-1.73;94.48
23241;BME280;11789;53.482;9.862;2022-12-13T13:40:31;101200.63;;;-1.78;94.59
23241;BME280;11789;53.482;9.862;2022-12-13T13:43:03;101194.53;;;-1.82;94.72
23241;BME280;11789;53.482;9.862;2022-12-13T13:57:19;101202.03;;;-1.84;94.70
23241;BME280;11789;53.482;9.862;2022-12-13T14:00:10;101200.28;;;-1.85;94.77
23241;BME280;11789;53.482;9.862;2022-12-13T14:10:49;101205.84;;;-1.92;95.31
23241;BME280;11789;53.482;9.862;2022-12-13T14:27:43;101200.69;;;-2.08;96.73
23241;BME280;11789;53.482;9.862;2022-12-13T14:30:16;101196.41;;;-2.09;96.97
23241;BME280;11789;53.482;9.862;2022-12-13T14:32:46;101194.66;;;-2.10;97.16
23241;BME280;11789;53.482;9.862;2022-12-13T14:35:22;101190.31;;;-2.13;97.46
23241;BME280;11789;53.482;9.862;2022-12-13T14:38:00;101189.19;;;-2.18;97.81
23241;BME280;11789;53.482;9.862;2022-12-13T14:40:32;101179.56;;;-2.23;98.20
23241;BME280;11789;53.482;9.862;2022-12-13T14:42:58;101182.75;;;-2.27;98.46
23241;BME280;11789;53.482;9.862;2022-12-13T14:45:33;101179.09;;;-2.32;98.76
23241;BME280;11789;53.482;9.862;2022-12-13T14:48:04;101174.62;;;-2.37;99.04
23241;BME280;11789;53.482;9.862;2022-12-13T14:50:33;101176.97;;;-2.40;99.20
23241;BME280;11789;53.482;9.862;2022-12-13T14:52:59;101173.50;;;-2.42;99.41
23241;BME280;11789;53.482;9.862;2022-12-13T14:55:28;101175.84;;;-2.45;99.60